createdAt,value
2017-11-12T00:00:47.211Z,2.60
2017-11-12T00:03:13.426Z,2.60
2017-11-12T00:05:39.642Z,2.60
2017-11-12T00:08:06.647Z,2.60
2017-11-12T00:10:32.863Z,2.60
2017-11-12T00:12:59.059Z,2.70
2017-11-12T00:15:25.271Z,2.70
2017-11-12T00:17:51.480Z,2.70
2017-11-12T00:20:18.463Z,2.70
2017-11-12T00:22:44.662Z,2.60
2017-11-12T00:25:11.645Z,2.70
2017-11-12T00:27:37.854Z,2.70
2017-11-12T00:30:04.062Z,2.70
2017-11-12T00:32:31.023Z,2.70
2017-11-12T00:34:57.956Z,2.70
2017-11-12T00:37:24.908Z,2.60
2017-11-12T00:39:51.847Z,2.60
2017-11-12T00:42:18.817Z,2.60
2017-11-12T00:44:45.005Z,2.60
2017-11-12T00:47:11.227Z,2.50
2017-11-12T00:49:37.424Z,2.60
2017-11-12T00:52:03.790Z,2.50
2017-11-12T00:54:29.989Z,2.50
2017-11-12T00:56:56.174Z,2.50
2017-11-12T00:59:23.146Z,2.50
2017-11-12T01:01:49.341Z,2.50
2017-11-12T01:04:16.298Z,2.50
2017-11-12T01:06:42.493Z,2.50
2017-11-12T01:09:08.730Z,2.60
2017-11-12T01:11:35.654Z,2.60
2017-11-12T01:14:01.866Z,2.60
2017-11-12T01:16:28.082Z,2.60
2017-11-12T01:18:54.286Z,2.60
2017-11-12T01:21:20.486Z,2.70
2017-11-12T01:23:47.416Z,2.60
2017-11-12T01:26:13.631Z,2.60
2017-11-12T01:28:39.835Z,2.70
2017-11-12T01:31:06.052Z,2.70
2017-11-12T01:33:32.242Z,2.70
2017-11-12T01:35:59.221Z,2.60
2017-11-12T01:38:25.426Z,2.60
2017-11-12T01:40:52.378Z,2.70
2017-11-12T01:43:18.615Z,2.60
2017-11-12T01:45:44.842Z,2.60
2017-11-12T01:48:11.063Z,2.70
2017-11-12T01:50:37.259Z,2.60
2017-11-12T01:53:03.498Z,2.60
2017-11-12T01:55:30.451Z,2.60
2017-11-12T01:57:57.433Z,2.70
2017-11-12T02:00:23.655Z,2.60
2017-11-12T02:02:49.907Z,2.70
2017-11-12T02:05:16.130Z,2.70
2017-11-12T02:07:42.358Z,2.70
2017-11-12T02:10:08.600Z,2.70
2017-11-12T02:12:34.819Z,2.60
2017-11-12T02:15:01.066Z,2.60
2017-11-12T02:17:27.262Z,2.60
2017-11-12T02:19:53.503Z,2.60
2017-11-12T02:22:19.719Z,2.60
2017-11-12T02:24:45.980Z,2.60
2017-11-12T02:27:12.238Z,2.60
2017-11-12T02:29:39.227Z,2.60
2017-11-12T02:32:05.467Z,2.60
2017-11-12T02:34:31.694Z,2.50
2017-11-12T02:36:57.955Z,2.60
2017-11-12T02:39:24.159Z,2.60
2017-11-12T02:41:50.402Z,2.50
2017-11-12T02:44:16.631Z,2.50
2017-11-12T02:46:42.925Z,2.50
2017-11-12T02:49:09.140Z,2.50
2017-11-12T02:51:35.390Z,2.50
2017-11-12T02:54:01.599Z,2.50
2017-11-12T02:56:27.862Z,2.50
2017-11-12T02:58:54.083Z,2.50
2017-11-12T03:01:20.279Z,2.40
2017-11-12T03:03:46.506Z,2.50
2017-11-12T03:06:12.698Z,2.50
2017-11-12T03:08:39.679Z,2.40
2017-11-12T03:11:05.898Z,2.40
2017-11-12T03:13:32.135Z,2.50
2017-11-12T03:15:58.342Z,2.50
2017-11-12T03:18:25.395Z,2.50
2017-11-12T03:20:52.355Z,2.50
2017-11-12T03:23:18.582Z,2.50
2017-11-12T03:25:44.815Z,2.50
2017-11-12T03:28:11.044Z,2.50
2017-11-12T03:30:37.297Z,2.50
2017-11-12T03:33:03.511Z,2.50
2017-11-12T03:35:29.762Z,2.50
2017-11-12T03:37:55.946Z,2.40
2017-11-12T03:40:22.160Z,2.50
2017-11-12T03:42:48.381Z,2.50
2017-11-12T03:45:15.382Z,2.40
2017-11-12T03:47:41.599Z,2.40
2017-11-12T03:50:07.840Z,2.50
2017-11-12T03:52:34.058Z,2.50
2017-11-12T03:55:00.322Z,2.50
2017-11-12T03:57:26.594Z,2.50
2017-11-12T03:59:52.784Z,2.50
2017-11-12T04:02:19.014Z,2.50
2017-11-12T04:04:45.231Z,2.50
2017-11-12T04:07:11.551Z,2.50
2017-11-12T04:09:37.741Z,2.50
2017-11-12T04:12:03.996Z,2.50
2017-11-12T04:14:30.210Z,2.50
2017-11-12T04:16:56.454Z,2.50
2017-11-12T04:19:22.658Z,2.50
2017-11-12T04:21:48.885Z,2.50
2017-11-12T04:24:15.082Z,2.50
2017-11-12T04:26:42.056Z,2.50
2017-11-12T04:29:08.274Z,2.50
2017-11-12T04:31:34.470Z,2.60
2017-11-12T04:34:00.692Z,2.50
2017-11-12T04:36:26.887Z,2.60
2017-11-12T04:38:53.098Z,2.50
2017-11-12T04:41:19.286Z,2.50
2017-11-12T04:43:45.498Z,2.50
2017-11-12T04:46:11.826Z,2.50
2017-11-12T04:48:38.042Z,2.50
2017-11-12T04:51:04.291Z,2.50
2017-11-12T04:53:30.511Z,2.50
2017-11-12T04:55:56.712Z,2.50
2017-11-12T04:58:22.932Z,2.50
2017-11-12T05:00:49.168Z,2.50
2017-11-12T05:03:15.388Z,2.50
2017-11-12T05:05:41.767Z,2.60
2017-11-12T05:08:07.981Z,2.60
2017-11-12T05:10:34.254Z,2.70
2017-11-12T05:13:00.438Z,2.70
2017-11-12T05:15:26.663Z,2.80
2017-11-12T05:17:52.859Z,2.80
2017-11-12T05:20:19.076Z,2.80
2017-11-12T05:22:45.266Z,2.80
2017-11-12T05:25:11.494Z,2.90
2017-11-12T05:27:37.705Z,2.90
2017-11-12T05:30:03.902Z,2.90
2017-11-12T05:32:30.111Z,2.90
2017-11-12T05:34:56.304Z,2.90
2017-11-12T05:37:23.296Z,3.00
2017-11-12T05:39:49.502Z,3.00
2017-11-12T05:42:15.710Z,3.00
2017-11-12T05:44:42.646Z,3.00
2017-11-12T05:47:08.863Z,3.00
2017-11-12T05:49:35.064Z,3.00
2017-11-12T05:52:01.253Z,3.00
2017-11-12T05:54:27.474Z,3.00
2017-11-12T05:56:54.406Z,3.00
2017-11-12T05:59:21.378Z,3.00
2017-11-12T06:01:47.567Z,3.00
2017-11-12T06:04:13.774Z,3.00
2017-11-12T06:06:40.010Z,3.00
2017-11-12T06:09:06.247Z,3.00
2017-11-12T06:11:32.455Z,3.00
2017-11-12T06:13:58.796Z,3.00
2017-11-12T06:16:25.031Z,3.00
2017-11-12T06:18:51.294Z,2.90
2017-11-12T06:21:18.250Z,3.00
2017-11-12T06:23:44.467Z,3.00
2017-11-12T06:26:11.479Z,3.00
2017-11-12T06:28:37.703Z,3.00
2017-11-12T06:31:03.914Z,3.00
2017-11-12T06:33:30.108Z,3.00
2017-11-12T06:35:56.315Z,3.10
2017-11-12T06:38:23.251Z,3.10
2017-11-12T06:40:49.462Z,3.10
2017-11-12T06:43:15.646Z,3.20
2017-11-12T06:45:41.858Z,3.30
2017-11-12T06:48:08.050Z,3.30
2017-11-12T06:50:34.308Z,3.30
2017-11-12T06:53:01.239Z,3.40
2017-11-12T06:55:28.171Z,3.40
2017-11-12T06:57:54.382Z,3.40
2017-11-12T07:00:20.588Z,3.40
2017-11-12T07:02:46.814Z,3.40
2017-11-12T07:05:13.011Z,3.30
2017-11-12T07:07:39.966Z,3.20
2017-11-12T07:10:06.159Z,3.20
2017-11-12T07:12:32.385Z,3.20
2017-11-12T07:14:58.598Z,3.10
2017-11-12T07:17:24.826Z,3.00
2017-11-12T07:19:51.033Z,3.00
2017-11-12T07:22:17.279Z,2.90
2017-11-12T07:24:43.478Z,3.00
2017-11-12T07:27:09.784Z,2.90
2017-11-12T07:29:36.966Z,2.90
2017-11-12T07:32:03.258Z,2.90
2017-11-12T07:34:30.299Z,2.90
2017-11-12T07:36:57.226Z,3.00
2017-11-12T07:39:23.441Z,3.00
2017-11-12T07:41:49.630Z,3.00
2017-11-12T07:44:15.846Z,3.10
2017-11-12T07:46:42.055Z,3.20
2017-11-12T07:49:09.009Z,3.20
2017-11-12T07:51:35.942Z,3.20
2017-11-12T07:54:02.932Z,3.20
2017-11-12T07:56:29.118Z,3.20
2017-11-12T07:58:56.072Z,3.40
2017-11-12T08:01:23.004Z,3.50
2017-11-12T08:03:49.955Z,3.60
2017-11-12T08:06:16.917Z,3.60
2017-11-12T08:08:43.134Z,3.60
2017-11-12T08:11:10.070Z,3.70
2017-11-12T08:13:37.039Z,3.80
2017-11-12T08:16:03.234Z,3.70
2017-11-12T08:18:29.467Z,3.80
2017-11-12T08:20:55.654Z,3.90
2017-11-12T08:23:21.874Z,3.90
2017-11-12T08:25:48.068Z,3.90
2017-11-12T08:28:14.301Z,4.10
2017-11-12T08:30:40.560Z,4.20
2017-11-12T08:33:06.785Z,4.20
2017-11-12T08:35:33.030Z,4.20
2017-11-12T08:37:59.282Z,4.30
2017-11-12T08:40:25.508Z,4.40
2017-11-12T08:42:51.787Z,4.40
2017-11-12T08:45:18.015Z,4.40
2017-11-12T08:47:44.245Z,4.50
2017-11-12T08:50:10.479Z,4.60
2017-11-12T08:52:36.706Z,4.60
2017-11-12T08:55:03.156Z,4.50
2017-11-12T08:57:29.374Z,4.60
2017-11-12T08:59:55.601Z,4.60
2017-11-12T09:02:21.883Z,4.70
2017-11-12T09:04:48.913Z,4.80
2017-11-12T09:07:15.122Z,4.80
2017-11-12T09:09:41.500Z,4.80
2017-11-12T09:12:07.734Z,4.90
2017-11-12T09:14:34.686Z,5.00
2017-11-12T09:17:01.018Z,5.00
2017-11-12T09:19:27.236Z,4.90
2017-11-12T09:21:54.220Z,5.00
2017-11-12T09:24:20.430Z,5.10
2017-11-12T09:26:46.646Z,5.10
2017-11-12T09:29:12.833Z,5.10
2017-11-12T09:31:39.088Z,5.10
2017-11-12T09:34:05.293Z,5.20
2017-11-12T09:36:31.532Z,5.30
2017-11-12T09:38:57.777Z,5.30
2017-11-12T09:41:24.726Z,5.40
2017-11-12T09:43:51.691Z,5.40
2017-11-12T09:46:17.893Z,5.40
2017-11-12T09:48:44.942Z,5.80
2017-11-12T09:51:12.034Z,5.80
2017-11-12T09:53:38.294Z,5.80
2017-11-12T09:56:05.550Z,6.00
2017-11-12T09:58:31.767Z,6.10
2017-11-12T10:00:57.966Z,6.30
2017-11-12T10:03:24.194Z,6.30
2017-11-12T10:05:50.403Z,6.10
2017-11-12T10:08:16.649Z,6.20
2017-11-12T10:10:42.849Z,6.20
2017-11-12T10:13:09.086Z,6.00
2017-11-12T10:15:35.270Z,6.20
2017-11-12T10:18:01.532Z,6.30
2017-11-12T10:20:27.754Z,6.30
2017-11-12T10:22:54.723Z,6.40
2017-11-12T10:25:20.919Z,6.40
2017-11-12T10:27:47.871Z,6.40
2017-11-12T10:30:14.810Z,6.40
2017-11-12T10:32:41.764Z,6.30
2017-11-12T10:35:07.975Z,6.30
2017-11-12T10:37:34.923Z,6.40
2017-11-12T10:40:01.920Z,6.40
2017-11-12T10:42:28.119Z,6.40
2017-11-12T10:44:54.337Z,6.60
2017-11-12T10:47:21.274Z,6.80
2017-11-12T10:49:48.234Z,6.80
2017-11-12T10:52:14.427Z,6.80
2017-11-12T10:54:40.667Z,7.00
2017-11-12T10:57:07.629Z,7.20
2017-11-12T10:59:33.814Z,7.10
2017-11-12T11:02:00.037Z,7.40
2017-11-12T11:04:26.235Z,7.60
2017-11-12T11:06:52.446Z,7.70
2017-11-12T11:09:18.662Z,7.90
2017-11-12T11:11:45.626Z,7.90
2017-11-12T11:14:11.829Z,7.90
2017-11-12T11:16:38.783Z,7.60
2017-11-12T11:19:05.705Z,7.50
2017-11-12T11:21:31.916Z,7.50
2017-11-12T11:23:58.122Z,7.50
2017-11-12T11:26:24.343Z,7.50
2017-11-12T11:28:50.554Z,7.50
2017-11-12T11:31:16.775Z,7.60
2017-11-12T11:33:42.979Z,7.40
2017-11-12T11:36:09.967Z,7.30
2017-11-12T11:38:36.315Z,7.30
2017-11-12T11:41:02.511Z,7.30
2017-11-12T11:43:28.735Z,7.30
2017-11-12T11:45:54.926Z,7.20
2017-11-12T11:48:21.137Z,7.30
2017-11-12T11:50:47.321Z,7.50
2017-11-12T11:53:13.559Z,7.50
2017-11-12T11:55:40.174Z,7.60
2017-11-12T11:58:07.147Z,7.60
2017-11-12T12:00:33.354Z,7.50
2017-11-12T12:02:59.584Z,7.40
2017-11-12T12:05:25.782Z,7.10
2017-11-12T12:07:52.011Z,7.00
2017-11-12T12:10:18.206Z,6.80
2017-11-12T12:12:44.403Z,6.60
2017-11-12T12:15:10.634Z,6.60
2017-11-12T12:17:36.838Z,6.70
2017-11-12T12:20:03.843Z,6.70
2017-11-12T12:22:30.030Z,6.70
2017-11-12T12:24:56.252Z,6.70
2017-11-12T12:27:22.451Z,6.80
2017-11-12T12:29:48.702Z,6.90
2017-11-12T12:32:15.626Z,7.10
2017-11-12T12:34:41.838Z,7.10
2017-11-12T12:37:08.040Z,7.20
2017-11-12T12:39:34.290Z,7.20
2017-11-12T12:42:00.567Z,7.20
2017-11-12T12:44:26.782Z,7.20
2017-11-12T12:46:53.710Z,6.90
2017-11-12T12:49:19.974Z,7.00
2017-11-12T12:51:46.174Z,6.90
2017-11-12T12:54:13.139Z,6.90
2017-11-12T12:56:39.343Z,6.90
2017-11-12T12:59:05.543Z,6.90
2017-11-12T13:01:31.786Z,6.80
2017-11-12T13:03:57.999Z,6.70
2017-11-12T13:06:24.226Z,6.80
2017-11-12T13:08:50.426Z,6.60
2017-11-12T13:11:16.639Z,6.30
2017-11-12T13:13:42.834Z,6.20
2017-11-12T13:16:09.076Z,6.10
2017-11-12T13:18:36.019Z,6.10
2017-11-12T13:21:03.001Z,6.20
2017-11-12T13:23:29.220Z,6.20
2017-11-12T13:25:55.535Z,6.30
2017-11-12T13:28:22.470Z,6.20
2017-11-12T13:30:49.443Z,6.00
2017-11-12T13:33:15.658Z,5.90
2017-11-12T13:35:41.908Z,5.90
2017-11-12T13:38:08.123Z,5.90
2017-11-12T13:40:34.406Z,5.70
2017-11-12T13:43:00.618Z,5.50
2017-11-12T13:45:26.858Z,5.40
2017-11-12T13:47:53.066Z,5.10
2017-11-12T13:50:19.343Z,5.00
2017-11-12T13:52:46.275Z,4.90
2017-11-12T13:55:12.531Z,4.90
2017-11-12T13:57:38.755Z,4.90
2017-11-12T14:00:04.954Z,4.90
2017-11-12T14:02:31.169Z,5.00
2017-11-12T14:04:58.104Z,4.90
2017-11-12T14:07:24.336Z,4.90
2017-11-12T14:09:50.535Z,4.90
2017-11-12T14:12:16.778Z,4.90
2017-11-12T14:14:43.000Z,4.90
2017-11-12T14:17:09.228Z,4.90
2017-11-12T14:19:35.422Z,5.00
2017-11-12T14:22:02.385Z,5.00
2017-11-12T14:24:28.587Z,5.00
2017-11-12T14:26:55.543Z,5.00
2017-11-12T14:29:22.475Z,5.00
2017-11-12T14:31:49.442Z,5.00
2017-11-12T14:34:15.645Z,5.00
2017-11-12T14:36:42.595Z,5.20
2017-11-12T14:39:09.587Z,5.20
2017-11-12T14:41:35.802Z,5.20
2017-11-12T14:44:01.996Z,5.20
2017-11-12T14:46:28.955Z,5.40
2017-11-12T14:48:55.188Z,5.40
2017-11-12T14:51:21.399Z,5.40
2017-11-12T14:53:48.334Z,5.50
2017-11-12T14:56:15.306Z,5.40
2017-11-12T14:58:41.530Z,5.40
2017-11-12T15:01:07.759Z,5.30
2017-11-12T15:03:34.000Z,5.30
2017-11-12T15:06:00.222Z,5.30
2017-11-12T15:08:26.423Z,5.20
2017-11-12T15:10:53.358Z,5.00
2017-11-12T15:13:19.631Z,5.00
2017-11-12T15:15:45.843Z,4.90
2017-11-12T15:18:12.071Z,5.00
2017-11-12T15:20:38.258Z,4.90
2017-11-12T15:23:04.480Z,4.90
2017-11-12T15:25:31.423Z,5.10
2017-11-12T15:27:57.654Z,5.10
2017-11-12T15:30:23.867Z,5.10
2017-11-12T15:32:50.091Z,5.10
2017-11-12T15:35:16.303Z,5.00
2017-11-12T15:37:42.514Z,5.10
2017-11-12T15:40:08.745Z,5.30
2017-11-12T15:42:34.975Z,5.40
2017-11-12T15:45:01.175Z,5.50
2017-11-12T15:47:28.164Z,5.20
2017-11-12T15:49:54.368Z,5.20
2017-11-12T15:52:20.586Z,5.00
2017-11-12T15:54:46.834Z,5.00
2017-11-12T15:57:13.042Z,5.00
2017-11-12T15:59:40.028Z,4.80
2017-11-12T16:02:06.238Z,4.80
2017-11-12T16:04:32.492Z,4.60
2017-11-12T16:06:58.685Z,4.50
2017-11-12T16:09:24.904Z,4.30
2017-11-12T16:11:51.139Z,4.40
2017-11-12T16:14:17.361Z,4.40
2017-11-12T16:16:43.575Z,4.30
2017-11-12T16:19:10.531Z,4.30
2017-11-12T16:21:37.467Z,4.30
2017-11-12T16:24:04.442Z,4.30
2017-11-12T16:26:30.635Z,4.30
2017-11-12T16:28:56.820Z,4.30
2017-11-12T16:31:23.037Z,4.40
2017-11-12T16:33:49.230Z,4.40
2017-11-12T16:36:16.232Z,4.30
2017-11-12T16:38:42.434Z,4.30
2017-11-12T16:41:08.689Z,4.30
2017-11-12T16:43:34.871Z,4.40
2017-11-12T16:46:01.095Z,4.40
2017-11-12T16:48:27.312Z,4.60
2017-11-12T16:50:54.263Z,4.50
2017-11-12T16:53:21.222Z,4.40
2017-11-12T16:55:47.427Z,4.30
2017-11-12T16:58:14.378Z,4.30
2017-11-12T17:00:41.338Z,4.30
2017-11-12T17:03:07.555Z,4.30
2017-11-12T17:05:34.498Z,4.20
2017-11-12T17:08:01.466Z,4.30
2017-11-12T17:10:27.655Z,4.20
2017-11-12T17:12:53.875Z,4.30
2017-11-12T17:15:20.123Z,4.20
2017-11-12T17:17:47.083Z,4.20
2017-11-12T17:20:13.301Z,4.20
2017-11-12T17:22:40.237Z,4.20
2017-11-12T17:25:07.199Z,4.30
2017-11-12T17:27:33.391Z,4.20
2017-11-12T17:29:59.621Z,4.30
2017-11-12T17:32:25.815Z,4.50
2017-11-12T17:34:52.036Z,4.60
2017-11-12T17:37:18.236Z,4.70
2017-11-12T17:39:44.479Z,4.80
2017-11-12T17:42:10.698Z,4.80
2017-11-12T17:44:36.914Z,4.90
2017-11-12T17:47:03.097Z,4.80
2017-11-12T17:49:29.319Z,4.70
2017-11-12T17:51:56.272Z,4.60
2017-11-12T17:54:22.492Z,4.60
2017-11-12T17:56:48.689Z,4.60
2017-11-12T17:59:14.906Z,4.60
2017-11-12T18:01:41.109Z,4.60
2017-11-12T18:04:08.075Z,4.60
2017-11-12T18:06:35.050Z,4.60
2017-11-12T18:09:01.258Z,4.60
2017-11-12T18:11:27.476Z,4.60
2017-11-12T18:13:54.434Z,4.70
2017-11-12T18:16:20.619Z,4.70
2017-11-12T18:18:46.834Z,4.70
2017-11-12T18:21:13.056Z,4.70
2017-11-12T18:23:39.278Z,4.70
2017-11-12T18:26:05.470Z,4.50
2017-11-12T18:28:31.719Z,4.50
2017-11-12T18:30:57.960Z,4.40
2017-11-12T18:33:24.298Z,4.50
2017-11-12T18:35:50.519Z,4.60
2017-11-12T18:38:16.737Z,4.60
2017-11-12T18:40:42.998Z,4.60
2017-11-12T18:43:09.227Z,4.70
2017-11-12T18:45:35.474Z,4.80
2017-11-12T18:48:01.707Z,4.90
2017-11-12T18:50:28.689Z,5.00
2017-11-12T18:52:54.915Z,5.00
2017-11-12T18:55:38.880Z,5.00
2017-11-12T18:58:07.922Z,5.00
2017-11-12T19:00:38.867Z,5.20
2017-11-12T19:03:08.761Z,5.00
2017-11-12T19:05:41.125Z,5.00
2017-11-12T19:08:07.474Z,4.90
2017-11-12T19:10:34.540Z,4.90
2017-11-12T19:13:00.869Z,4.90
2017-11-12T19:15:27.278Z,4.90
2017-11-12T19:18:06.154Z,4.80
2017-11-12T19:20:32.578Z,4.80
2017-11-12T19:23:09.988Z,4.60
2017-11-12T19:25:38.275Z,4.50
2017-11-12T19:28:04.671Z,4.40
2017-11-12T19:30:31.124Z,4.40
2017-11-12T19:32:57.518Z,4.30
2017-11-12T19:35:23.952Z,4.30
2017-11-12T19:37:50.404Z,4.40
2017-11-12T19:40:16.943Z,4.30
2017-11-12T19:42:43.426Z,4.30
2017-11-12T19:45:09.929Z,4.20
2017-11-12T19:47:37.139Z,4.30
2017-11-12T19:50:03.650Z,4.30
2017-11-12T19:52:30.124Z,4.20
2017-11-12T19:54:56.627Z,4.20
2017-11-12T19:57:23.108Z,4.10
2017-11-12T19:59:49.603Z,4.10
2017-11-12T20:02:16.128Z,4.10
2017-11-12T20:04:42.654Z,4.10
2017-11-12T20:07:09.121Z,4.10
2017-11-12T20:09:35.587Z,4.10
2017-11-12T20:12:02.006Z,4.10
2017-11-12T20:14:28.443Z,4.10
2017-11-12T20:16:54.828Z,4.10
2017-11-12T20:19:22.012Z,4.10
2017-11-12T20:21:48.413Z,4.10
2017-11-12T20:24:14.733Z,4.10
2017-11-12T20:26:40.998Z,4.10
2017-11-12T20:29:07.266Z,4.10
2017-11-12T20:31:33.589Z,4.10
2017-11-12T20:33:59.832Z,4.00
2017-11-12T20:36:26.100Z,4.00
2017-11-12T20:38:53.042Z,4.10
2017-11-12T20:41:19.323Z,4.10
2017-11-12T20:43:45.528Z,4.10
2017-11-12T20:46:11.782Z,4.10
2017-11-12T20:48:38.007Z,4.10
2017-11-12T20:51:08.118Z,4.10
2017-11-12T20:53:34.378Z,4.10
2017-11-12T20:56:00.591Z,4.10
2017-11-12T20:58:26.822Z,4.10
2017-11-12T21:00:53.039Z,4.10
2017-11-12T21:03:19.314Z,4.20
2017-11-12T21:05:46.274Z,4.20
2017-11-12T21:08:13.257Z,4.20
2017-11-12T21:10:39.473Z,4.10
2017-11-12T21:13:05.723Z,4.10
2017-11-12T21:15:31.932Z,4.10
2017-11-12T21:17:58.207Z,4.10
2017-11-12T21:20:28.462Z,4.10
2017-11-12T21:22:58.485Z,4.10
2017-11-12T21:25:24.714Z,4.10
2017-11-12T21:27:51.779Z,4.10
2017-11-12T21:30:21.841Z,4.10
2017-11-12T21:32:53.958Z,4.00
2017-11-12T21:35:30.155Z,3.90
2017-11-12T21:37:56.365Z,3.90
2017-11-12T21:40:22.623Z,3.90
2017-11-12T21:42:48.842Z,3.90
2017-11-12T21:45:15.087Z,3.80
2017-11-12T21:47:41.309Z,3.80
2017-11-12T21:50:07.563Z,3.90
2017-11-12T21:52:34.504Z,3.90
2017-11-12T21:55:01.455Z,3.80
2017-11-12T21:57:27.645Z,3.80
2017-11-12T21:59:53.895Z,3.80
2017-11-12T22:02:20.133Z,3.80
2017-11-12T22:04:46.352Z,3.80
2017-11-12T22:07:12.542Z,3.90
2017-11-12T22:09:38.779Z,3.90
2017-11-12T22:12:04.987Z,3.90
2017-11-12T22:14:31.250Z,3.90
2017-11-12T22:16:57.450Z,3.90
2017-11-12T22:19:23.637Z,3.90
2017-11-12T22:21:49.851Z,3.90
2017-11-12T22:24:16.787Z,3.90
2017-11-12T22:26:43.003Z,3.90
2017-11-12T22:29:09.215Z,3.90
2017-11-12T22:31:35.448Z,3.90
2017-11-12T22:34:01.730Z,4.00
2017-11-12T22:36:28.006Z,4.00
2017-11-12T22:38:54.207Z,4.10
2017-11-12T22:41:20.455Z,4.10
2017-11-12T22:43:46.639Z,4.20
2017-11-12T22:46:12.847Z,4.10
2017-11-12T22:48:40.119Z,4.20
2017-11-12T22:51:06.355Z,4.30
2017-11-12T22:53:32.546Z,4.40
2017-11-12T22:55:58.774Z,4.50
2017-11-12T22:58:24.959Z,4.50
2017-11-12T23:00:57.173Z,4.50
2017-11-12T23:03:23.390Z,4.50
2017-11-12T23:05:49.578Z,4.50
2017-11-12T23:08:15.792Z,4.50
2017-11-12T23:10:41.974Z,4.60
2017-11-12T23:13:08.189Z,4.60
2017-11-12T23:15:34.419Z,4.60
2017-11-12T23:18:00.645Z,4.50
2017-11-12T23:20:26.848Z,4.40
2017-11-12T23:22:53.069Z,4.50
2017-11-12T23:25:19.262Z,4.50
2017-11-12T23:27:46.225Z,4.40
2017-11-12T23:30:12.434Z,4.30
2017-11-12T23:32:39.397Z,4.40
2017-11-12T23:35:05.609Z,4.40
2017-11-12T23:37:32.566Z,4.30
2017-11-12T23:39:59.522Z,4.40
2017-11-12T23:42:25.747Z,4.30
2017-11-12T23:44:51.950Z,4.30
2017-11-12T23:47:18.911Z,4.40
2017-11-12T23:49:45.835Z,4.40
2017-11-12T23:52:12.070Z,4.40
2017-11-12T23:54:39.016Z,4.30
2017-11-12T23:57:05.967Z,4.30
2017-11-12T23:59:32.915Z,4.30
